sensor_id;sensor_type;location;lat;lon;timestamp;pressure;altitude;pressure_sealevel;temperature;humidity
16255;BME280;8235;52.198;9.904;2022-12-29T00:00:03;99587.06;;;9.42;83.98
16255;BME280;8235;52.198;9.904;2022-12-29T00:02:30;99586.13;;;9.43;83.67
16255;BME280;8235;52.198;9.904;2022-12-29T00:04:57;99588.66;;;9.44;83.78
16255;BME280;8235;52.198;9.904;2022-12-29T00:07:23;99589.16;;;9.49;83.84
16255;BME280;8235;52.198;9.904;2022-12-29T00:09:50;99582.00;;;9.50;84.17
16255;BME280;8235;52.198;9.904;2022-12-29T00:12:16;99587.31;;;9.50;83.35
16255;BME280;8235;52.198;9.904;2022-12-29T00:14:44;99579.97;;;9.53;83.27
16255;BME280;8235;52.198;9.904;2022-12-29T00:17:28;99577.94;;;9.57;83.03
16255;BME280;8235;52.198;9.904;2022-12-29T00:19:54;99589.41;;;9.57;83.06
16255;BME280;8235;52.198;9.904;2022-12-29T00:22:38;99586.41;;;9.62;82.90
16255;BME280;8235;52.198;9.904;2022-12-29T00:25:22;99579.53;;;9.59;82.93
16255;BME280;8235;52.198;9.904;2022-12-29T00:28:08;99569.72;;;9.60;83.35
16255;BME280;8235;52.198;9.904;2022-12-29T00:30:58;99578.44;;;9.62;83.15
16255;BME280;8235;52.198;9.904;2022-12-29T00:33:42;99574.72;;;9.64;83.38
16255;BME280;8235;52.198;9.904;2022-12-29T00:36:28;99572.06;;;9.64;83.15
16255;BME280;8235;52.198;9.904;2022-12-29T00:38:59;99569.88;;;9.69;82.83
16255;BME280;8235;52.198;9.904;2022-12-29T00:41:44;99569.75;;;9.71;82.79
16255;BME280;8235;52.198;9.904;2022-12-29T00:44:28;99559.00;;;9.72;83.15
16255;BME280;8235;52.198;9.904;2022-12-29T00:46:55;99566.00;;;9.73;83.19
16255;BME280;8235;52.198;9.904;2022-12-29T00:49:22;99559.72;;;9.74;83.37
16255;BME280;8235;52.198;9.904;2022-12-29T00:51:59;99575.56;;;9.76;83.40
16255;BME280;8235;52.198;9.904;2022-12-29T00:54:27;99576.91;;;9.82;83.67
16255;BME280;8235;52.198;9.904;2022-12-29T00:56:53;99565.53;;;9.80;83.82
16255;BME280;8235;52.198;9.904;2022-12-29T00:59:20;99567.25;;;9.81;84.30
16255;BME280;8235;52.198;9.904;2022-12-29T01:01:49;99563.38;;;9.85;83.98
16255;BME280;8235;52.198;9.904;2022-12-29T01:04:18;99565.31;;;9.83;84.39
16255;BME280;8235;52.198;9.904;2022-12-29T01:06:44;99547.16;;;9.88;84.42
16255;BME280;8235;52.198;9.904;2022-12-29T01:09:11;99542.22;;;9.94;83.84
16255;BME280;8235;52.198;9.904;2022-12-29T01:11:55;99549.84;;;9.99;83.86
16255;BME280;8235;52.198;9.904;2022-12-29T01:14:23;99545.72;;;9.95;83.88
16255;BME280;8235;52.198;9.904;2022-12-29T01:16:50;99542.22;;;9.94;83.96
16255;BME280;8235;52.198;9.904;2022-12-29T01:19:19;99535.81;;;9.97;83.94
16255;BME280;8235;52.198;9.904;2022-12-29T01:21:46;99546.34;;;9.98;84.40
16255;BME280;8235;52.198;9.904;2022-12-29T01:24:13;99541.25;;;9.95;84.52
16255;BME280;8235;52.198;9.904;2022-12-29T01:26:39;99535.94;;;9.95;84.38
16255;BME280;8235;52.198;9.904;2022-12-29T01:29:06;99525.91;;;9.99;84.99
16255;BME280;8235;52.198;9.904;2022-12-29T01:31:32;99537.53;;;9.98;84.94
16255;BME280;8235;52.198;9.904;2022-12-29T01:33:59;99512.25;;;9.92;85.08
16255;BME280;8235;52.198;9.904;2022-12-29T01:36:27;99517.69;;;9.91;85.34
16255;BME280;8235;52.198;9.904;2022-12-29T01:38:53;99513.56;;;9.87;85.45
16255;BME280;8235;52.198;9.904;2022-12-29T01:41:20;99505.34;;;9.90;85.98
16255;BME280;8235;52.198;9.904;2022-12-29T01:43:48;99493.00;;;9.89;86.03
16255;BME280;8235;52.198;9.904;2022-12-29T01:46:25;99493.75;;;9.91;85.79
16255;BME280;8235;52.198;9.904;2022-12-29T01:48:55;99488.53;;;9.89;86.33
16255;BME280;8235;52.198;9.904;2022-12-29T01:51:26;99499.19;;;9.89;86.06
16255;BME280;8235;52.198;9.904;2022-12-29T01:53:58;99499.78;;;9.93;86.66
16255;BME280;8235;52.198;9.904;2022-12-29T01:56:27;99489.16;;;9.93;86.79
16255;BME280;8235;52.198;9.904;2022-12-29T01:58:56;99479.94;;;9.86;86.92
16255;BME280;8235;52.198;9.904;2022-12-29T02:01:26;99475.75;;;9.83;87.44
16255;BME280;8235;52.198;9.904;2022-12-29T02:03:53;99475.63;;;9.85;87.22
16255;BME280;8235;52.198;9.904;2022-12-29T02:06:22;99477.44;;;9.84;87.67
16255;BME280;8235;52.198;9.904;2022-12-29T02:08:53;99479.94;;;9.86;87.81
16255;BME280;8235;52.198;9.904;2022-12-29T02:11:21;99466.41;;;9.89;87.71
16255;BME280;8235;52.198;9.904;2022-12-29T02:13:49;99459.91;;;9.93;87.67
16255;BME280;8235;52.198;9.904;2022-12-29T02:16:29;99457.72;;;9.98;87.56
16255;BME280;8235;52.198;9.904;2022-12-29T02:19:17;99460.25;;;9.99;87.61
16255;BME280;8235;52.198;9.904;2022-12-29T02:22:06;99452.91;;;10.03;87.37
16255;BME280;8235;52.198;9.904;2022-12-29T02:25:01;99468.00;;;10.02;87.25
16255;BME280;8235;52.198;9.904;2022-12-29T02:31:01;99458.31;;;10.13;86.50
16255;BME280;8235;52.198;9.904;2022-12-29T02:33:42;99453.09;;;10.11;86.34
16255;BME280;8235;52.198;9.904;2022-12-29T02:36:20;99447.06;;;10.09;86.47
16255;BME280;8235;52.198;9.904;2022-12-29T02:38:52;99445.63;;;10.16;86.69
16255;BME280;8235;52.198;9.904;2022-12-29T02:41:27;99465.19;;;10.15;86.36
16255;BME280;8235;52.198;9.904;2022-12-29T02:44:01;99464.97;;;10.18;86.33
16255;BME280;8235;52.198;9.904;2022-12-29T02:46:35;99467.53;;;10.20;86.26
16255;BME280;8235;52.198;9.904;2022-12-29T02:49:07;99466.69;;;10.19;86.06
16255;BME280;8235;52.198;9.904;2022-12-29T02:51:43;99470.19;;;10.20;86.02
16255;BME280;8235;52.198;9.904;2022-12-29T02:54:10;99456.88;;;10.20;85.96
16255;BME280;8235;52.198;9.904;2022-12-29T02:56:59;99455.66;;;10.24;85.23
16255;BME280;8235;52.198;9.904;2022-12-29T02:59:26;99455.78;;;10.22;85.16
16255;BME280;8235;52.198;9.904;2022-12-29T03:02:13;99455.53;;;10.25;85.08
16255;BME280;8235;52.198;9.904;2022-12-29T03:04:56;99458.31;;;10.24;85.32
16255;BME280;8235;52.198;9.904;2022-12-29T03:07:32;99445.13;;;10.22;84.96
16255;BME280;8235;52.198;9.904;2022-12-29T03:10:10;99453.72;;;10.26;85.52
16255;BME280;8235;52.198;9.904;2022-12-29T03:12:47;99451.41;;;10.21;85.40
16255;BME280;8235;52.198;9.904;2022-12-29T03:15:34;99449.13;;;10.28;85.29
16255;BME280;8235;52.198;9.904;2022-12-29T03:18:25;99441.00;;;10.29;85.39
16255;BME280;8235;52.198;9.904;2022-12-29T03:21:02;99447.31;;;10.28;85.55
16255;BME280;8235;52.198;9.904;2022-12-29T03:23:29;99444.63;;;10.28;85.60
16255;BME280;8235;52.198;9.904;2022-12-29T03:25:58;99441.13;;;10.28;85.81
16255;BME280;8235;52.198;9.904;2022-12-29T03:28:31;99444.88;;;10.25;86.24
16255;BME280;8235;52.198;9.904;2022-12-29T03:31:00;99434.97;;;10.27;86.49
16255;BME280;8235;52.198;9.904;2022-12-29T03:33:29;99428.69;;;10.28;86.62
16255;BME280;8235;52.198;9.904;2022-12-29T03:35:59;99426.84;;;10.29;86.60
16255;BME280;8235;52.198;9.904;2022-12-29T03:38:33;99413.31;;;10.32;86.76
16255;BME280;8235;52.198;9.904;2022-12-29T03:41:07;99410.78;;;10.30;86.97
16255;BME280;8235;52.198;9.904;2022-12-29T03:43:35;99402.78;;;10.30;87.41
16255;BME280;8235;52.198;9.904;2022-12-29T03:46:02;99407.38;;;10.28;87.72
16255;BME280;8235;52.198;9.904;2022-12-29T03:48:29;99413.19;;;10.33;87.74
16255;BME280;8235;52.198;9.904;2022-12-29T03:50:58;99404.34;;;10.33;87.31
16255;BME280;8235;52.198;9.904;2022-12-29T03:53:24;99401.09;;;10.29;87.74
16255;BME280;8235;52.198;9.904;2022-12-29T03:55:51;99397.22;;;10.33;88.21
16255;BME280;8235;52.198;9.904;2022-12-29T03:58:17;99406.16;;;10.32;87.96
16255;BME280;8235;52.198;9.904;2022-12-29T04:00:44;99397.34;;;10.32;88.06
16255;BME280;8235;52.198;9.904;2022-12-29T04:03:10;99393.84;;;10.31;88.01
16255;BME280;8235;52.198;9.904;2022-12-29T04:05:38;99392.38;;;10.27;88.42
16255;BME280;8235;52.198;9.904;2022-12-29T04:08:05;99409.06;;;10.29;88.39
16255;BME280;8235;52.198;9.904;2022-12-29T04:10:31;99414.53;;;10.28;88.35
16255;BME280;8235;52.198;9.904;2022-12-29T04:12:58;99410.03;;;10.28;88.24
16255;BME280;8235;52.198;9.904;2022-12-29T04:15:24;99417.19;;;10.28;88.55
16255;BME280;8235;52.198;9.904;2022-12-29T04:17:51;99408.22;;;10.29;88.39
16255;BME280;8235;52.198;9.904;2022-12-29T04:20:18;99414.41;;;10.29;88.45
16255;BME280;8235;52.198;9.904;2022-12-29T04:23:03;99399.28;;;10.30;88.08
16255;BME280;8235;52.198;9.904;2022-12-29T04:25:31;99403.97;;;10.37;88.04
16255;BME280;8235;52.198;9.904;2022-12-29T04:27:57;99402.16;;;10.38;87.72
16255;BME280;8235;52.198;9.904;2022-12-29T04:30:24;99404.69;;;10.39;87.65
16255;BME280;8235;52.198;9.904;2022-12-29T04:32:51;99412.66;;;10.39;87.40
16255;BME280;8235;52.198;9.904;2022-12-29T04:35:17;99407.81;;;10.44;87.13
16255;BME280;8235;52.198;9.904;2022-12-29T04:37:44;99402.50;;;10.44;86.65
16255;BME280;8235;52.198;9.904;2022-12-29T04:40:12;99406.97;;;10.44;86.44
16255;BME280;8235;52.198;9.904;2022-12-29T04:42:38;99408.53;;;10.47;86.28
16255;BME280;8235;52.198;9.904;2022-12-29T04:45:06;99409.72;;;10.54;85.70
16255;BME280;8235;52.198;9.904;2022-12-29T04:47:33;99411.53;;;10.53;85.44
16255;BME280;8235;52.198;9.904;2022-12-29T04:49:59;99403.44;;;10.55;85.05
16255;BME280;8235;52.198;9.904;2022-12-29T04:52:25;99400.78;;;10.55;85.06
16255;BME280;8235;52.198;9.904;2022-12-29T04:54:52;99385.53;;;10.57;84.65
16255;BME280;8235;52.198;9.904;2022-12-29T04:57:20;99382.44;;;10.61;83.87
16255;BME280;8235;52.198;9.904;2022-12-29T04:59:46;99390.06;;;10.66;83.44
16255;BME280;8235;52.198;9.904;2022-12-29T05:02:13;99389.81;;;10.69;83.20
16255;BME280;8235;52.198;9.904;2022-12-29T05:04:39;99395.31;;;10.77;82.32
16255;BME280;8235;52.198;9.904;2022-12-29T05:07:06;99384.81;;;10.75;82.26
16255;BME280;8235;52.198;9.904;2022-12-29T05:09:32;99379.81;;;10.82;81.65
16255;BME280;8235;52.198;9.904;2022-12-29T05:11:59;99371.09;;;10.80;81.63
16255;BME280;8235;52.198;9.904;2022-12-29T05:14:26;99375.47;;;10.81;81.55
16255;BME280;8235;52.198;9.904;2022-12-29T05:16:53;99371.44;;;10.87;80.78
16255;BME280;8235;52.198;9.904;2022-12-29T05:19:19;99365.97;;;10.88;80.60
16255;BME280;8235;52.198;9.904;2022-12-29T05:21:46;99371.31;;;10.88;80.35
16255;BME280;8235;52.198;9.904;2022-12-29T05:24:13;99368.66;;;10.88;80.26
16255;BME280;8235;52.198;9.904;2022-12-29T05:26:40;99366.69;;;10.90;80.22
16255;BME280;8235;52.198;9.904;2022-12-29T05:29:07;99368.09;;;10.94;80.02
16255;BME280;8235;52.198;9.904;2022-12-29T05:31:35;99364.34;;;10.97;79.58
16255;BME280;8235;52.198;9.904;2022-12-29T05:34:01;99366.63;;;11.01;79.29
16255;BME280;8235;52.198;9.904;2022-12-29T05:36:28;99366.75;;;11.00;79.43
16255;BME280;8235;52.198;9.904;2022-12-29T05:38:54;99362.41;;;10.99;79.48
16255;BME280;8235;52.198;9.904;2022-12-29T05:41:20;99361.28;;;11.01;79.57
16255;BME280;8235;52.198;9.904;2022-12-29T05:43:47;99368.69;;;10.98;79.78
16255;BME280;8235;52.198;9.904;2022-12-29T05:46:13;99368.81;;;10.96;80.08
16255;BME280;8235;52.198;9.904;2022-12-29T05:48:41;99369.78;;;10.95;80.40
16255;BME280;8235;52.198;9.904;2022-12-29T05:51:08;99358.03;;;10.98;80.64
16255;BME280;8235;52.198;9.904;2022-12-29T05:53:34;99355.50;;;10.96;81.03
16255;BME280;8235;52.198;9.904;2022-12-29T05:56:00;99363.50;;;10.96;81.27
16255;BME280;8235;52.198;9.904;2022-12-29T05:58:27;99360.13;;;10.94;81.63
16255;BME280;8235;52.198;9.904;2022-12-29T06:00:53;99360.44;;;11.01;82.00
16255;BME280;8235;52.198;9.904;2022-12-29T06:03:20;99356.81;;;11.02;82.90
16255;BME280;8235;52.198;9.904;2022-12-29T06:05:47;99357.78;;;11.01;83.20
16255;BME280;8235;52.198;9.904;2022-12-29T06:08:14;99356.34;;;10.97;83.41
16255;BME280;8235;52.198;9.904;2022-12-29T06:10:40;99367.13;;;10.95;83.96
16255;BME280;8235;52.198;9.904;2022-12-29T06:13:07;99361.09;;;10.93;84.57
16255;BME280;8235;52.198;9.904;2022-12-29T06:15:34;99357.16;;;10.88;84.84
16255;BME280;8235;52.198;9.904;2022-12-29T06:18:00;99346.50;;;10.88;85.15
16255;BME280;8235;52.198;9.904;2022-12-29T06:20:27;99348.06;;;10.90;85.13
16255;BME280;8235;52.198;9.904;2022-12-29T06:22:55;99335.00;;;10.87;85.43
16255;BME280;8235;52.198;9.904;2022-12-29T06:25:21;99329.78;;;10.86;85.40
16255;BME280;8235;52.198;9.904;2022-12-29T06:27:47;99321.09;;;10.84;85.62
16255;BME280;8235;52.198;9.904;2022-12-29T06:30:14;99325.69;;;10.82;85.76
16255;BME280;8235;52.198;9.904;2022-12-29T06:32:42;99322.31;;;10.79;85.99
16255;BME280;8235;52.198;9.904;2022-12-29T06:35:09;99321.22;;;10.82;86.11
16255;BME280;8235;52.198;9.904;2022-12-29T06:37:35;99333.44;;;10.85;85.80
16255;BME280;8235;52.198;9.904;2022-12-29T06:40:04;99331.09;;;10.91;85.27
16255;BME280;8235;52.198;9.904;2022-12-29T06:42:31;99324.94;;;10.91;85.19
16255;BME280;8235;52.198;9.904;2022-12-29T06:44:57;99309.78;;;10.91;85.11
16255;BME280;8235;52.198;9.904;2022-12-29T06:47:25;99318.47;;;10.93;84.67
16255;BME280;8235;52.198;9.904;2022-12-29T06:49:52;99325.50;;;10.94;84.73
16255;BME280;8235;52.198;9.904;2022-12-29T06:52:18;99314.31;;;11.00;84.19
16255;BME280;8235;52.198;9.904;2022-12-29T06:54:45;99308.84;;;11.02;84.23
16255;BME280;8235;52.198;9.904;2022-12-29T06:57:13;99295.09;;;10.97;84.16
16255;BME280;8235;52.198;9.904;2022-12-29T06:59:39;99305.34;;;11.01;84.16
16255;BME280;8235;52.198;9.904;2022-12-29T07:02:05;99316.72;;;11.03;83.78
16255;BME280;8235;52.198;9.904;2022-12-29T07:04:32;99312.94;;;11.06;83.38
16255;BME280;8235;52.198;9.904;2022-12-29T07:06:58;99323.91;;;11.12;82.46
16255;BME280;8235;52.198;9.904;2022-12-29T07:09:25;99314.09;;;11.13;82.08
16255;BME280;8235;52.198;9.904;2022-12-29T07:11:51;99337.94;;;11.14;82.09
16255;BME280;8235;52.198;9.904;2022-12-29T07:14:19;99342.28;;;11.16;81.60
16255;BME280;8235;52.198;9.904;2022-12-29T07:16:46;99329.81;;;11.16;81.02
16255;BME280;8235;52.198;9.904;2022-12-29T07:19:12;99314.41;;;11.20;80.64
16255;BME280;8235;52.198;9.904;2022-12-29T07:21:39;99295.50;;;11.23;80.33
16255;BME280;8235;52.198;9.904;2022-12-29T07:24:05;99307.72;;;11.25;79.62
16255;BME280;8235;52.198;9.904;2022-12-29T07:26:32;99313.88;;;11.26;79.12
16255;BME280;8235;52.198;9.904;2022-12-29T07:29:00;99310.25;;;11.27;78.75
16255;BME280;8235;52.198;9.904;2022-12-29T07:31:27;99318.91;;;11.29;78.43
16255;BME280;8235;52.198;9.904;2022-12-29T07:33:54;99348.81;;;11.32;77.66
16255;BME280;8235;52.198;9.904;2022-12-29T07:36:21;99364.94;;;11.31;77.59
16255;BME280;8235;52.198;9.904;2022-12-29T07:38:47;99358.63;;;11.32;77.54
16255;BME280;8235;52.198;9.904;2022-12-29T07:41:14;99366.13;;;11.38;77.24
16255;BME280;8235;52.198;9.904;2022-12-29T07:43:40;99393.88;;;11.35;77.98
16255;BME280;8235;52.198;9.904;2022-12-29T07:46:06;99386.00;;;11.34;77.98
16255;BME280;8235;52.198;9.904;2022-12-29T07:48:35;99383.34;;;11.34;78.22
16255;BME280;8235;52.198;9.904;2022-12-29T07:51:02;99401.28;;;11.32;78.58
16255;BME280;8235;52.198;9.904;2022-12-29T07:53:28;99402.00;;;11.34;78.56
16255;BME280;8235;52.198;9.904;2022-12-29T07:55:55;99410.97;;;11.33;78.61
16255;BME280;8235;52.198;9.904;2022-12-29T07:58:21;99420.91;;;11.31;78.53
16255;BME280;8235;52.198;9.904;2022-12-29T08:00:52;99405.91;;;11.30;78.25
16255;BME280;8235;52.198;9.904;2022-12-29T08:03:19;99388.22;;;11.29;78.23
16255;BME280;8235;52.198;9.904;2022-12-29T08:05:47;99416.84;;;11.27;78.69
16255;BME280;8235;52.198;9.904;2022-12-29T08:08:13;99414.31;;;11.25;79.50
16255;BME280;8235;52.198;9.904;2022-12-29T08:10:40;99415.53;;;11.21;80.00
16255;BME280;8235;52.198;9.904;2022-12-29T08:13:06;99422.81;;;11.19;80.92
16255;BME280;8235;52.198;9.904;2022-12-29T08:15:33;99433.88;;;11.14;81.54
16255;BME280;8235;52.198;9.904;2022-12-29T08:17:59;99434.13;;;11.11;82.33
16255;BME280;8235;52.198;9.904;2022-12-29T08:20:26;99425.44;;;11.09;82.80
16255;BME280;8235;52.198;9.904;2022-12-29T08:22:53;99428.22;;;11.08;83.29
16255;BME280;8235;52.198;9.904;2022-12-29T08:25:20;99425.94;;;11.03;83.69
16255;BME280;8235;52.198;9.904;2022-12-29T08:27:47;99417.25;;;11.01;84.09
16255;BME280;8235;52.198;9.904;2022-12-29T08:30:13;99409.50;;;10.98;84.52
16255;BME280;8235;52.198;9.904;2022-12-29T08:32:40;99407.94;;;10.96;84.77
16255;BME280;8235;52.198;9.904;2022-12-29T08:35:07;99416.19;;;10.93;84.87
16255;BME280;8235;52.198;9.904;2022-12-29T08:37:34;99415.22;;;10.94;85.14
16255;BME280;8235;52.198;9.904;2022-12-29T08:40:03;99408.34;;;10.91;84.87
16255;BME280;8235;52.198;9.904;2022-12-29T08:42:29;99424.34;;;10.91;84.95
16255;BME280;8235;52.198;9.904;2022-12-29T08:44:56;99424.34;;;10.91;84.39
16255;BME280;8235;52.198;9.904;2022-12-29T08:47:23;99429.66;;;10.91;84.25
16255;BME280;8235;52.198;9.904;2022-12-29T08:49:49;99460.66;;;10.92;84.14
16255;BME280;8235;52.198;9.904;2022-12-29T08:52:15;99469.75;;;10.90;84.26
16255;BME280;8235;52.198;9.904;2022-12-29T08:54:42;99475.78;;;10.92;84.45
16255;BME280;8235;52.198;9.904;2022-12-29T08:57:10;99487.53;;;10.89;85.22
16255;BME280;8235;52.198;9.904;2022-12-29T08:59:36;99498.44;;;10.86;85.65
16255;BME280;8235;52.198;9.904;2022-12-29T09:02:03;99485.50;;;10.82;85.97
16255;BME280;8235;52.198;9.904;2022-12-29T09:04:29;99464.69;;;10.75;86.75
16255;BME280;8235;52.198;9.904;2022-12-29T09:06:56;99469.44;;;10.72;87.22
16255;BME280;8235;52.198;9.904;2022-12-29T09:09:22;99476.72;;;10.70;88.01
16255;BME280;8235;52.198;9.904;2022-12-29T09:11:49;99480.84;;;10.63;88.82
16255;BME280;8235;52.198;9.904;2022-12-29T09:14:16;99493.69;;;10.58;89.41
16255;BME280;8235;52.198;9.904;2022-12-29T09:16:43;99475.44;;;10.53;90.11
16255;BME280;8235;52.198;9.904;2022-12-29T09:19:27;99485.25;;;10.53;90.66
16255;BME280;8235;52.198;9.904;2022-12-29T09:21:53;99483.53;;;10.52;91.08
16255;BME280;8235;52.198;9.904;2022-12-29T09:24:20;99496.13;;;10.50;91.57
16255;BME280;8235;52.198;9.904;2022-12-29T09:26:46;99500.13;;;10.44;91.74
16255;BME280;8235;52.198;9.904;2022-12-29T09:29:13;99488.63;;;10.43;91.92
16255;BME280;8235;52.198;9.904;2022-12-29T09:31:40;99479.94;;;10.41;92.09
16255;BME280;8235;52.198;9.904;2022-12-29T09:34:07;99486.22;;;10.40;92.19
16255;BME280;8235;52.198;9.904;2022-12-29T09:36:33;99481.06;;;10.39;92.28
16255;BME280;8235;52.198;9.904;2022-12-29T09:39:00;99488.03;;;10.40;92.50
16255;BME280;8235;52.198;9.904;2022-12-29T09:41:31;99480.91;;;10.40;92.36
16255;BME280;8235;52.198;9.904;2022-12-29T09:44:06;99489.84;;;10.39;92.65
16255;BME280;8235;52.198;9.904;2022-12-29T09:46:35;99487.19;;;10.39;92.83
16255;BME280;8235;52.198;9.904;2022-12-29T09:49:13;99500.50;;;10.39;92.86
16255;BME280;8235;52.198;9.904;2022-12-29T09:51:45;99491.53;;;10.40;93.22
16255;BME280;8235;52.198;9.904;2022-12-29T09:54:23;99491.53;;;10.40;93.24
16255;BME280;8235;52.198;9.904;2022-12-29T09:56:50;99496.88;;;10.40;93.41
16255;BME280;8235;52.198;9.904;2022-12-29T09:59:20;99498.69;;;10.40;94.16
16255;BME280;8235;52.198;9.904;2022-12-29T10:01:53;99488.19;;;10.38;94.62
16255;BME280;8235;52.198;9.904;2022-12-29T10:04:25;99488.88;;;10.40;94.45
16255;BME280;8235;52.198;9.904;2022-12-29T10:06:57;99478.00;;;10.43;94.42
16255;BME280;8235;52.198;9.904;2022-12-29T10:09:33;99480.41;;;10.47;94.21
16255;BME280;8235;52.198;9.904;2022-12-29T10:12:16;99483.78;;;10.49;94.06
16255;BME280;8235;52.198;9.904;2022-12-29T10:14:58;99481.59;;;10.54;93.75
16255;BME280;8235;52.198;9.904;2022-12-29T10:17:36;99490.31;;;10.56;92.82
16255;BME280;8235;52.198;9.904;2022-12-29T10:20:19;99489.06;;;10.60;92.33
16255;BME280;8235;52.198;9.904;2022-12-29T10:23:01;99487.00;;;10.63;91.33
16255;BME280;8235;52.198;9.904;2022-12-29T10:25:33;99485.91;;;10.66;89.83
16255;BME280;8235;52.198;9.904;2022-12-29T10:28:09;99492.94;;;10.67;89.07
16255;BME280;8235;52.198;9.904;2022-12-29T10:30:38;99487.13;;;10.73;87.97
16255;BME280;8235;52.198;9.904;2022-12-29T10:33:07;99488.66;;;10.75;87.25
16255;BME280;8235;52.198;9.904;2022-12-29T10:35:39;99495.44;;;10.79;85.92
16255;BME280;8235;52.198;9.904;2022-12-29T10:38:14;99490.56;;;10.85;85.29
16255;BME280;8235;52.198;9.904;2022-12-29T10:40:45;99493.84;;;10.88;84.21
16255;BME280;8235;52.198;9.904;2022-12-29T10:43:22;99479.31;;;10.92;82.68
16255;BME280;8235;52.198;9.904;2022-12-29T10:45:51;99471.03;;;10.95;81.78
16255;BME280;8235;52.198;9.904;2022-12-29T10:48:21;99463.63;;;10.99;81.39
16255;BME280;8235;52.198;9.904;2022-12-29T10:50:50;99465.78;;;11.05;80.22
16255;BME280;8235;52.198;9.904;2022-12-29T10:53:22;99471.97;;;11.05;80.02
16255;BME280;8235;52.198;9.904;2022-12-29T10:55:51;99461.19;;;11.07;79.75
16255;BME280;8235;52.198;9.904;2022-12-29T10:58:19;99471.59;;;11.10;79.45
16255;BME280;8235;52.198;9.904;2022-12-29T11:00:49;99469.47;;;11.13;78.39
16255;BME280;8235;52.198;9.904;2022-12-29T11:03:41;99474.25;;;11.10;78.30
16255;BME280;8235;52.198;9.904;2022-12-29T11:06:14;99483.91;;;11.11;78.22
16255;BME280;8235;52.198;9.904;2022-12-29T11:08:48;99495.28;;;11.13;77.93
16255;BME280;8235;52.198;9.904;2022-12-29T11:11:22;99494.56;;;11.11;77.70
16255;BME280;8235;52.198;9.904;2022-12-29T11:13:56;99507.06;;;11.10;76.93
16255;BME280;8235;52.198;9.904;2022-12-29T11:16:27;99504.78;;;11.06;75.97
16255;BME280;8235;52.198;9.904;2022-12-29T11:18:55;99507.19;;;11.09;75.63
16255;BME280;8235;52.198;9.904;2022-12-29T11:21:32;99505.38;;;11.09;75.10
16255;BME280;8235;52.198;9.904;2022-12-29T11:24:01;99500.91;;;11.10;74.49
16255;BME280;8235;52.198;9.904;2022-12-29T11:26:28;99496.53;;;11.09;73.38
16255;BME280;8235;52.198;9.904;2022-12-29T11:29:28;99515.06;;;11.10;73.17
16255;BME280;8235;52.198;9.904;2022-12-29T11:32:11;99517.44;;;11.13;72.30
16255;BME280;8235;52.198;9.904;2022-12-29T11:34:38;99520.84;;;11.16;71.79
16255;BME280;8235;52.198;9.904;2022-12-29T11:37:11;99530.66;;;11.15;71.51
16255;BME280;8235;52.198;9.904;2022-12-29T11:39:41;99529.78;;;11.14;71.19
16255;BME280;8235;52.198;9.904;2022-12-29T11:42:15;99531.75;;;11.12;70.62
16255;BME280;8235;52.198;9.904;2022-12-29T11:44:44;99531.88;;;11.11;70.65
16255;BME280;8235;52.198;9.904;2022-12-29T11:47:23;99521.81;;;11.14;70.76
16255;BME280;8235;52.198;9.904;2022-12-29T11:49:53;99542.28;;;11.14;70.66
16255;BME280;8235;52.198;9.904;2022-12-29T11:52:24;99538.75;;;11.13;70.82
16255;BME280;8235;52.198;9.904;2022-12-29T11:54:53;99537.78;;;11.14;70.51
16255;BME280;8235;52.198;9.904;2022-12-29T11:57:22;99536.22;;;11.12;69.75
16255;BME280;8235;52.198;9.904;2022-12-29T11:59:50;99528.94;;;11.14;69.43
16255;BME280;8235;52.198;9.904;2022-12-29T12:02:44;99536.22;;;11.12;69.81
16255;BME280;8235;52.198;9.904;2022-12-29T12:05:21;99538.63;;;11.15;69.84
16255;BME280;8235;52.198;9.904;2022-12-29T12:07:54;99544.09;;;11.13;69.73
16255;BME280;8235;52.198;9.904;2022-12-29T12:10:24;99543.84;;;11.17;69.13
16255;BME280;8235;52.198;9.904;2022-12-29T12:12:57;99537.06;;;11.12;69.30
16255;BME280;8235;52.198;9.904;2022-12-29T12:15:29;99537.06;;;11.12;68.71
16255;BME280;8235;52.198;9.904;2022-12-29T12:18:00;99539.03;;;11.10;68.83
16255;BME280;8235;52.198;9.904;2022-12-29T12:20:38;99542.94;;;11.06;68.81
16255;BME280;8235;52.198;9.904;2022-12-29T12:23:17;99530.34;;;11.08;69.08
16255;BME280;8235;52.198;9.904;2022-12-29T12:25:52;99523.31;;;11.07;68.82
16255;BME280;8235;52.198;9.904;2022-12-29T12:28:26;99526.94;;;11.06;68.72
16255;BME280;8235;52.198;9.904;2022-12-29T12:30:58;99528.03;;;11.04;68.74
16255;BME280;8235;52.198;9.904;2022-12-29T12:33:31;99527.91;;;11.05;68.37
16255;BME280;8235;52.198;9.904;2022-12-29T12:36:13;99526.94;;;11.06;68.67
16255;BME280;8235;52.198;9.904;2022-12-29T12:38:53;99528.50;;;11.09;68.66
16255;BME280;8235;52.198;9.904;2022-12-29T12:41:29;99531.31;;;11.07;68.70
16255;BME280;8235;52.198;9.904;2022-12-29T12:44:00;99535.66;;;11.08;69.12
16255;BME280;8235;52.198;9.904;2022-12-29T12:46:41;99539.88;;;11.11;69.02
16255;BME280;8235;52.198;9.904;2022-12-29T12:49:26;99540.72;;;11.11;68.89
16255;BME280;8235;52.198;9.904;2022-12-29T12:52:01;99535.53;;;11.10;68.81
16255;BME280;8235;52.198;9.904;2022-12-29T12:54:48;99536.38;;;11.10;68.91
16255;BME280;8235;52.198;9.904;2022-12-29T12:57:28;99541.00;;;11.08;69.22
16255;BME280;8235;52.198;9.904;2022-12-29T13:00:03;99524.16;;;11.08;69.00
16255;BME280;8235;52.198;9.904;2022-12-29T13:02:40;99536.50;;;11.09;68.92
16255;BME280;8235;52.198;9.904;2022-12-29T13:05:25;99542.69;;;11.09;68.66
16255;BME280;8235;52.198;9.904;2022-12-29T13:08:08;99549.97;;;11.07;68.58
16255;BME280;8235;52.198;9.904;2022-12-29T13:10:43;99543.78;;;11.07;68.81
16255;BME280;8235;52.198;9.904;2022-12-29T13:13:48;99548.38;;;11.05;68.83
16255;BME280;8235;52.198;9.904;2022-12-29T13:16:25;99555.03;;;11.10;68.49
16255;BME280;8235;52.198;9.904;2022-12-29T13:18:59;99550.81;;;11.08;68.19
16255;BME280;8235;52.198;9.904;2022-12-29T13:21:35;99542.69;;;11.09;68.36
16255;BME280;8235;52.198;9.904;2022-12-29T13:24:11;99561.19;;;11.11;68.08
16255;BME280;8235;52.198;9.904;2022-12-29T13:26:46;99560.50;;;11.09;68.10
16255;BME280;8235;52.198;9.904;2022-12-29T13:29:18;99561.19;;;11.11;67.71
16255;BME280;8235;52.198;9.904;2022-12-29T13:31:52;99571.03;;;11.10;67.78
16255;BME280;8235;52.198;9.904;2022-12-29T13:34:29;99575.75;;;11.07;67.66